createdAt,value
2023-05-25T00:01:06.006Z,100027.03
2023-05-25T00:03:33.864Z,100026.25
2023-05-25T00:06:01.761Z,100027.94
2023-05-25T00:08:29.451Z,100026.13
2023-05-25T00:10:57.044Z,100028.09
2023-05-25T00:13:24.642Z,100027.22
2023-05-25T00:15:51.877Z,100028.81
2023-05-25T00:18:19.485Z,100028.81
2023-05-25T00:20:47.651Z,100029.75
2023-05-25T00:23:15.180Z,100024.28
2023-05-25T00:25:43.069Z,100022.63
2023-05-25T00:28:11.087Z,100022.63
2023-05-25T00:30:38.450Z,100030.03
2023-05-25T00:33:06.909Z,100027.59
2023-05-25T00:35:34.211Z,100019.56
2023-05-25T00:38:01.423Z,100024.16
2023-05-25T00:40:28.949Z,100029.59
2023-05-25T00:42:56.265Z,100032.31
2023-05-25T00:45:23.652Z,100039.69
2023-05-25T00:47:54.243Z,100032.59
2023-05-25T00:50:23.224Z,100039.81
2023-05-25T00:52:51.683Z,100037.44
2023-05-25T00:55:18.983Z,100038.16
2023-05-25T00:57:46.254Z,100042.50
2023-05-25T01:00:14.158Z,100033.22
2023-05-25T01:02:42.566Z,100042.88
2023-05-25T01:05:09.899Z,100038.41
2023-05-25T01:07:37.720Z,100046.34
2023-05-25T01:10:08.177Z,100042.28
2023-05-25T01:12:36.673Z,100045.00
2023-05-25T01:15:04.802Z,100042.44
2023-05-25T01:17:32.512Z,100047.81
2023-05-25T01:20:09.575Z,100055.09
2023-05-25T01:22:40.480Z,100057.63
2023-05-25T01:25:09.639Z,100053.06
2023-05-25T01:27:38.471Z,100050.87
2023-05-25T01:30:07.015Z,100055.09
2023-05-25T01:32:35.376Z,100053.25
2023-05-25T01:35:03.575Z,100057.25
2023-05-25T01:37:32.116Z,100059.97
2023-05-25T01:39:59.364Z,100057.53
2023-05-25T01:42:26.544Z,100055.72
2023-05-25T01:44:54.112Z,100055.31
2023-05-25T01:47:21.591Z,100057.22
2023-05-25T01:49:55.016Z,100055.81
2023-05-25T01:52:22.955Z,100064.34
2023-05-25T01:54:55.212Z,100062.81
2023-05-25T01:57:24.374Z,100066.66
2023-05-25T01:59:51.749Z,100074.19
2023-05-25T02:02:19.121Z,100069.38
2023-05-25T02:04:46.837Z,100075.59
2023-05-25T02:07:14.273Z,100067.91
2023-05-25T02:09:41.506Z,100072.88
2023-05-25T02:12:09.261Z,100074.97
2023-05-25T02:14:36.499Z,100070.31
2023-05-25T02:17:04.011Z,100073.38
2023-05-25T02:19:31.602Z,100076.78
2023-05-25T02:21:58.818Z,100068.13
2023-05-25T02:24:26.054Z,100070.75
2023-05-25T02:26:53.592Z,100078.50
2023-05-25T02:29:21.015Z,100076.97
2023-05-25T02:31:48.278Z,100076.56
2023-05-25T02:34:16.306Z,100077.13
2023-05-25T02:36:43.988Z,100077.06
2023-05-25T02:39:11.402Z,100079.78
2023-05-25T02:41:39.053Z,100077.44
2023-05-25T02:44:07.358Z,100080.94
2023-05-25T02:46:34.775Z,100081.69
2023-05-25T02:49:02.334Z,100082.62
2023-05-25T02:51:29.670Z,100088.69
2023-05-25T02:53:57.055Z,100082.84
2023-05-25T02:56:24.610Z,100081.41
2023-05-25T02:58:51.877Z,100088.28
2023-05-25T03:01:19.607Z,100094.69
2023-05-25T03:03:47.611Z,100096.03
2023-05-25T03:06:14.872Z,100099.00
2023-05-25T03:08:43.563Z,100099.97
2023-05-25T03:11:11.064Z,100103.06
2023-05-25T03:13:39.259Z,100102.91
2023-05-25T03:16:06.633Z,100096.81
2023-05-25T03:18:34.756Z,100104.63
2023-05-25T03:21:01.974Z,100108.13
2023-05-25T03:23:32.096Z,100104.38
2023-05-25T03:26:03.671Z,100108.84
2023-05-25T03:28:31.035Z,100113.41
2023-05-25T03:30:58.346Z,100112.28
2023-05-25T03:33:28.392Z,100106.62
2023-05-25T03:35:55.773Z,100109.16
2023-05-25T03:38:23.670Z,100112.50
2023-05-25T03:40:51.156Z,100113.12
2023-05-25T03:43:18.405Z,100109.16
2023-05-25T03:45:46.098Z,100107.91
2023-05-25T03:48:13.742Z,100110.53
2023-05-25T03:50:41.820Z,100116.62
2023-05-25T03:53:09.563Z,100115.53
2023-05-25T03:55:37.011Z,100122.63
2023-05-25T03:58:04.182Z,100119.06
2023-05-25T04:00:31.392Z,100127.75
2023-05-25T04:02:59.173Z,100120.56
2023-05-25T04:05:26.657Z,100124.75
2023-05-25T04:07:53.927Z,100134.50
2023-05-25T04:10:21.518Z,100135.37
2023-05-25T04:12:48.690Z,100140.66
2023-05-25T04:15:17.150Z,100138.91
2023-05-25T04:17:45.164Z,100133.38
2023-05-25T04:20:12.479Z,100133.50
2023-05-25T04:22:40.044Z,100145.44
2023-05-25T04:25:08.374Z,100138.75
2023-05-25T04:27:35.760Z,100141.87
2023-05-25T04:30:04.427Z,100140.22
2023-05-25T04:32:37.189Z,100142.53
2023-05-25T04:35:05.955Z,100142.06
2023-05-25T04:37:36.967Z,100145.87
2023-05-25T04:40:22.965Z,100145.69
2023-05-25T04:42:53.997Z,100154.25
2023-05-25T04:45:21.599Z,100145.72
2023-05-25T04:47:49.898Z,100139.53
2023-05-25T04:50:17.651Z,100141.78
2023-05-25T04:52:45.182Z,100147.75
2023-05-25T04:55:12.567Z,100149.56
2023-05-25T04:57:40.255Z,100139.03
2023-05-25T05:00:09.899Z,100140.16
2023-05-25T05:02:38.045Z,100151.63
2023-05-25T05:05:06.624Z,100149.47
2023-05-25T05:07:34.081Z,100146.06
2023-05-25T05:10:01.709Z,100152.94
2023-05-25T05:12:29.726Z,100144.66
2023-05-25T05:14:57.543Z,100155.87
2023-05-25T05:17:26.429Z,100150.62
2023-05-25T05:19:54.270Z,100149.06
2023-05-25T05:22:21.573Z,100150.94
2023-05-25T05:24:48.961Z,100160.06
2023-05-25T05:27:17.134Z,100154.41
2023-05-25T05:29:44.786Z,100157.72
2023-05-25T05:32:12.488Z,100160.09
2023-05-25T05:34:40.077Z,100155.75
2023-05-25T05:37:07.612Z,100156.56
2023-05-25T05:39:36.247Z,100155.69
2023-05-25T05:42:05.062Z,100158.25
2023-05-25T05:44:32.331Z,100158.03
2023-05-25T05:47:02.286Z,100167.16
2023-05-25T05:49:30.478Z,100160.38
2023-05-25T05:51:58.145Z,100165.16
2023-05-25T05:54:27.729Z,100166.59
2023-05-25T05:56:55.429Z,100159.37
2023-05-25T05:59:22.730Z,100169.16
2023-05-25T06:01:50.225Z,100169.13
2023-05-25T06:04:18.672Z,100171.91
2023-05-25T06:06:46.212Z,100174.16
2023-05-25T06:09:13.761Z,100172.87
2023-05-25T06:11:41.379Z,100175.41
2023-05-25T06:14:08.714Z,100171.38
2023-05-25T06:16:36.701Z,100179.72
2023-05-25T06:19:04.565Z,100176.75
2023-05-25T06:21:31.772Z,100177.81
2023-05-25T06:23:59.036Z,100181.53
2023-05-25T06:26:27.318Z,100185.84
2023-05-25T06:28:55.074Z,100186.09
2023-05-25T06:31:22.395Z,100183.16
2023-05-25T06:33:49.950Z,100182.84
2023-05-25T06:36:17.396Z,100181.75
2023-05-25T06:38:45.182Z,100180.41
2023-05-25T06:41:15.259Z,100182.09
2023-05-25T06:43:43.034Z,100179.31
2023-05-25T06:46:11.530Z,100182.87
2023-05-25T06:48:39.187Z,100187.41
2023-05-25T06:51:06.468Z,100188.38
2023-05-25T06:53:33.692Z,100193.13
2023-05-25T06:56:01.208Z,100177.47
2023-05-25T06:58:28.420Z,100183.13
2023-05-25T07:00:55.710Z,100188.19
2023-05-25T07:03:23.226Z,100182.72
2023-05-25T07:05:50.482Z,100189.22
2023-05-25T07:08:17.757Z,100185.06
2023-05-25T07:10:45.394Z,100195.16
2023-05-25T07:13:13.658Z,100192.19
2023-05-25T07:15:41.053Z,100191.72
2023-05-25T07:18:12.520Z,100194.41
2023-05-25T07:20:42.307Z,100198.72
2023-05-25T07:23:10.659Z,100192.41
2023-05-25T07:25:38.133Z,100198.22
2023-05-25T07:28:05.361Z,100199.25
2023-05-25T07:30:33.038Z,100189.81
2023-05-25T07:33:01.032Z,100198.69
2023-05-25T07:35:28.299Z,100195.44
2023-05-25T07:37:56.461Z,100196.34
2023-05-25T07:40:23.722Z,100190.31
2023-05-25T07:42:51.453Z,100192.81
2023-05-25T07:45:18.950Z,100193.25
2023-05-25T07:47:46.224Z,100203.06
2023-05-25T07:50:13.944Z,100198.25
2023-05-25T07:52:41.827Z,100202.53
2023-05-25T07:55:09.311Z,100190.50
2023-05-25T07:57:36.672Z,100192.63
2023-05-25T08:00:08.279Z,100199.47
2023-05-25T08:02:40.323Z,100193.37
2023-05-25T08:05:08.282Z,100184.69
2023-05-25T08:07:35.878Z,100191.91
2023-05-25T08:10:03.433Z,100190.13
2023-05-25T08:12:46.851Z,100189.94
2023-05-25T08:15:16.607Z,100196.34
2023-05-25T08:17:44.547Z,100195.12
2023-05-25T08:20:12.458Z,100200.03
2023-05-25T08:22:39.873Z,100195.66
2023-05-25T08:25:08.149Z,100201.50
2023-05-25T08:27:36.195Z,100200.13
2023-05-25T08:30:05.838Z,100196.94
2023-05-25T08:32:33.515Z,100197.34
2023-05-25T08:35:01.912Z,100195.94
2023-05-25T08:37:29.434Z,100199.63
2023-05-25T08:39:56.941Z,100194.59
2023-05-25T08:42:24.431Z,100196.53
2023-05-25T08:44:51.605Z,100199.47
2023-05-25T08:47:20.519Z,100205.66
2023-05-25T08:49:48.702Z,100202.97
2023-05-25T08:52:16.213Z,100193.69
2023-05-25T08:54:44.240Z,100197.06
2023-05-25T08:57:20.935Z,100205.19
2023-05-25T08:59:51.616Z,100203.34
2023-05-25T09:02:21.709Z,100203.00
2023-05-25T09:04:49.363Z,100202.44
2023-05-25T09:07:16.686Z,100204.22
2023-05-25T09:09:44.176Z,100205.69
2023-05-25T09:12:11.761Z,100190.53
2023-05-25T09:14:45.608Z,100188.59
2023-05-25T09:17:16.932Z,100192.63
2023-05-25T09:19:44.382Z,100188.12
2023-05-25T09:22:15.963Z,100197.47
2023-05-25T09:24:45.271Z,100193.81
2023-05-25T09:27:13.800Z,100196.31
2023-05-25T09:29:41.591Z,100196.78
2023-05-25T09:32:09.217Z,100193.47
2023-05-25T09:34:36.555Z,100203.59
2023-05-25T09:37:04.420Z,100191.78
2023-05-25T09:39:32.318Z,100201.41
2023-05-25T09:41:59.599Z,100198.62
2023-05-25T09:44:26.970Z,100197.19
2023-05-25T09:46:54.458Z,100204.44
2023-05-25T09:49:21.719Z,100198.69
2023-05-25T09:51:49.328Z,100206.78
2023-05-25T09:54:16.877Z,100201.81
2023-05-25T09:56:44.140Z,100202.81
2023-05-25T09:59:11.798Z,100206.13
2023-05-25T10:01:40.163Z,100199.38
2023-05-25T10:04:09.261Z,100199.91
2023-05-25T10:06:37.389Z,100196.69
2023-05-25T10:09:04.934Z,100205.19
2023-05-25T10:11:32.583Z,100200.50
2023-05-25T10:14:03.806Z,100201.25
2023-05-25T10:16:31.221Z,100203.63
2023-05-25T10:19:01.698Z,100196.19
2023-05-25T10:21:29.472Z,100199.28
2023-05-25T10:24:01.082Z,100192.66
2023-05-25T10:26:28.707Z,100184.31
2023-05-25T10:28:56.829Z,100184.00
2023-05-25T10:31:28.196Z,100189.34
2023-05-25T10:33:56.268Z,100193.81
2023-05-25T10:36:23.541Z,100184.84
2023-05-25T10:38:51.168Z,100179.37
2023-05-25T10:41:20.301Z,100186.19
2023-05-25T10:43:47.817Z,100172.97
2023-05-25T10:46:15.258Z,100173.41
2023-05-25T10:48:46.663Z,100178.47
2023-05-25T10:51:14.338Z,100177.66
2023-05-25T10:53:45.963Z,100180.84
2023-05-25T10:56:14.357Z,100170.84
2023-05-25T10:58:46.398Z,100167.09
2023-05-25T11:01:15.155Z,100180.84
2023-05-25T11:03:58.193Z,100173.63
2023-05-25T11:06:40.261Z,100169.59
2023-05-25T11:09:07.763Z,100168.34
2023-05-25T11:11:47.370Z,100166.41
2023-05-25T11:14:21.093Z,100170.84
2023-05-25T11:17:04.194Z,100159.09
2023-05-25T11:19:44.554Z,100156.22
2023-05-25T11:22:16.033Z,100151.44
2023-05-25T11:24:45.157Z,100157.66
2023-05-25T11:27:12.673Z,100152.87
2023-05-25T11:29:40.952Z,100141.38
2023-05-25T11:32:14.405Z,100140.78
2023-05-25T11:34:46.559Z,100144.28
2023-05-25T11:37:16.152Z,100145.06
2023-05-25T11:39:46.719Z,100140.31
2023-05-25T11:42:13.903Z,100133.59
2023-05-25T11:44:41.465Z,100131.87
2023-05-25T11:47:13.277Z,100137.84
2023-05-25T11:49:42.073Z,100125.59
2023-05-25T11:52:10.308Z,100132.16
2023-05-25T11:54:39.919Z,100129.16
2023-05-25T11:57:14.135Z,100119.50
2023-05-25T11:59:41.813Z,100111.78
2023-05-25T12:02:09.067Z,100113.53
2023-05-25T12:04:37.061Z,100114.41
2023-05-25T12:07:04.976Z,100113.62
2023-05-25T12:09:32.501Z,100107.31
2023-05-25T12:12:00.770Z,100109.88
2023-05-25T12:14:28.032Z,100094.44
2023-05-25T12:16:55.406Z,100104.28
2023-05-25T12:19:23.456Z,100099.94
2023-05-25T12:21:51.774Z,100105.63
2023-05-25T12:24:19.261Z,100102.69
2023-05-25T12:26:47.415Z,100104.06
2023-05-25T12:29:14.813Z,100097.31
2023-05-25T12:31:42.110Z,100096.38
2023-05-25T12:34:14.133Z,100098.00
2023-05-25T12:36:44.583Z,100095.03
2023-05-25T12:39:13.243Z,100096.00
2023-05-25T12:41:44.582Z,100103.47
2023-05-25T12:44:21.480Z,100103.34
2023-05-25T12:46:49.564Z,100092.31
2023-05-25T12:49:30.532Z,100091.09
2023-05-25T12:51:58.346Z,100092.78
2023-05-25T12:54:35.823Z,100095.94
2023-05-25T12:57:03.965Z,100091.03
2023-05-25T12:59:31.603Z,100095.50
2023-05-25T13:01:58.850Z,100086.72
2023-05-25T13:04:26.252Z,100084.41
2023-05-25T13:06:54.139Z,100078.09
2023-05-25T13:09:23.623Z,100078.44
2023-05-25T13:11:50.884Z,100081.97
2023-05-25T13:14:18.386Z,100074.91
2023-05-25T13:16:46.280Z,100072.53
2023-05-25T13:19:13.639Z,100072.00
2023-05-25T13:21:41.092Z,100069.16
2023-05-25T13:24:08.671Z,100067.28
2023-05-25T13:26:36.217Z,100061.09
2023-05-25T13:29:03.746Z,100069.69
2023-05-25T13:31:31.068Z,100059.56
2023-05-25T13:33:59.046Z,100058.50
2023-05-25T13:36:26.542Z,100042.66
2023-05-25T13:38:53.916Z,100044.16
2023-05-25T13:41:21.244Z,100046.69
2023-05-25T13:43:48.836Z,100043.16
2023-05-25T13:46:30.057Z,100042.22
2023-05-25T13:49:01.550Z,100031.94
2023-05-25T13:51:28.838Z,100028.31
2023-05-25T13:53:56.085Z,100022.31
2023-05-25T13:56:23.925Z,100022.56
2023-05-25T13:58:51.933Z,100022.97
2023-05-25T14:01:19.338Z,100023.84
2023-05-25T14:03:47.086Z,100012.06
2023-05-25T14:06:14.754Z,100018.34
2023-05-25T14:08:41.928Z,100016.16
2023-05-25T14:11:09.823Z,100009.81
2023-05-25T14:13:37.072Z,100004.34
2023-05-25T14:16:04.392Z,100010.03
2023-05-25T14:18:31.970Z,100015.69
2023-05-25T14:20:59.660Z,100009.72
2023-05-25T14:23:26.956Z,100011.28
2023-05-25T14:25:54.521Z,100003.50
2023-05-25T14:28:21.802Z,100011.31
2023-05-25T14:30:49.307Z,100006.44
2023-05-25T14:33:17.343Z,100007.13
2023-05-25T14:35:44.889Z,100001.25
2023-05-25T14:38:12.290Z,99991.75
2023-05-25T14:40:39.788Z,99999.59
2023-05-25T14:43:07.189Z,99995.53
2023-05-25T14:45:34.383Z,99997.25
2023-05-25T14:48:15.463Z,99997.91
2023-05-25T14:50:44.896Z,99994.25
2023-05-25T14:53:12.433Z,99996.16
2023-05-25T14:55:40.887Z,99992.31
2023-05-25T14:58:08.174Z,99984.72
2023-05-25T15:00:35.830Z,99990.38
2023-05-25T15:03:03.165Z,99991.38
2023-05-25T15:05:30.994Z,99990.84
2023-05-25T15:07:59.053Z,99990.12
2023-05-25T15:10:27.058Z,99988.16
2023-05-25T15:12:54.276Z,99991.44
2023-05-25T15:15:21.746Z,99983.72
2023-05-25T15:17:49.007Z,99982.12
2023-05-25T15:20:16.355Z,99983.41
2023-05-25T15:22:44.549Z,99986.94
2023-05-25T15:25:13.604Z,99990.97
2023-05-25T15:27:42.525Z,99987.09
2023-05-25T15:30:10.302Z,99987.94
2023-05-25T15:32:37.539Z,99985.78
2023-05-25T15:35:04.906Z,99982.88
2023-05-25T15:37:32.413Z,99990.06
2023-05-25T15:39:59.873Z,99981.09
2023-05-25T15:42:27.097Z,99981.97
2023-05-25T15:44:54.618Z,99987.31
2023-05-25T15:47:22.057Z,99983.94
2023-05-25T15:49:49.377Z,99989.34
2023-05-25T15:52:17.202Z,99975.09
2023-05-25T15:54:44.371Z,99973.34
2023-05-25T15:57:11.562Z,99977.78
2023-05-25T15:59:39.053Z,99979.53
2023-05-25T16:02:06.676Z,99980.25
2023-05-25T16:32:27.658Z,99989.97
2023-05-25T16:34:55.820Z,99989.97
2023-05-25T16:37:23.543Z,99992.53
2023-05-25T16:39:51.038Z,100000.75
2023-05-25T16:42:18.799Z,99986.37
2023-05-25T16:44:46.254Z,99997.72
2023-05-25T16:47:13.839Z,100003.72
2023-05-25T16:49:41.570Z,99994.00
2023-05-25T16:52:10.023Z,100004.31
2023-05-25T16:54:37.601Z,100005.00
2023-05-25T16:57:06.927Z,99999.66
2023-05-25T16:59:34.387Z,100007.06
2023-05-25T17:02:02.145Z,99995.13
2023-05-25T17:04:29.978Z,100006.50
2023-05-25T17:06:57.385Z,100008.41
2023-05-25T17:09:25.312Z,100009.87
2023-05-25T17:11:53.820Z,100004.25
2023-05-25T17:14:21.590Z,100003.09
2023-05-25T17:16:49.392Z,100003.44
2023-05-25T17:19:17.210Z,100000.78
2023-05-25T17:21:44.771Z,100003.28
2023-05-25T17:24:12.222Z,100000.59
2023-05-25T17:26:40.036Z,100002.38
2023-05-25T17:29:07.555Z,100005.91
2023-05-25T17:31:35.116Z,100009.59
2023-05-25T17:34:03.168Z,100006.28
2023-05-25T17:36:30.851Z,100011.94
2023-05-25T17:38:58.384Z,100011.06
2023-05-25T17:41:26.426Z,100007.16
2023-05-25T17:43:53.924Z,100004.75
2023-05-25T17:46:21.928Z,100005.63
2023-05-25T17:48:49.648Z,100005.31
2023-05-25T17:51:18.376Z,99999.00
2023-05-25T17:53:45.766Z,100002.53
2023-05-25T17:56:13.470Z,100011.28
2023-05-25T17:58:47.112Z,100010.75
2023-05-25T18:01:15.710Z,100009.59
2023-05-25T18:03:43.754Z,100002.44
2023-05-25T18:06:11.272Z,100006.06
2023-05-25T18:08:38.706Z,100006.31
2023-05-25T18:11:06.587Z,100007.88
2023-05-25T18:13:34.021Z,100008.03
2023-05-25T18:16:01.459Z,100011.50
2023-05-25T18:18:29.324Z,100005.63
2023-05-25T18:20:56.808Z,100010.19
2023-05-25T18:23:24.287Z,100018.88
2023-05-25T18:25:52.679Z,100021.34
2023-05-25T18:28:20.149Z,100026.66
2023-05-25T18:30:47.664Z,100028.13
2023-05-25T18:33:16.376Z,100026.56
2023-05-25T18:35:44.071Z,100039.19
2023-05-25T18:38:12.103Z,100039.81
2023-05-25T18:40:39.810Z,100030.34
2023-05-25T18:43:07.868Z,100039.47
2023-05-25T18:45:35.336Z,100043.78
2023-05-25T18:48:09.028Z,100049.75
2023-05-25T18:50:37.668Z,100042.91
2023-05-25T18:53:07.687Z,100055.06
2023-05-25T18:55:35.142Z,100049.19
2023-05-25T18:58:02.635Z,100049.81
2023-05-25T19:00:30.679Z,100062.34
2023-05-25T19:02:58.245Z,100068.91
2023-05-25T19:05:25.963Z,100073.69
2023-05-25T19:07:59.099Z,100078.16
2023-05-25T19:10:27.606Z,100084.56
2023-05-25T19:12:55.393Z,100088.66
2023-05-25T19:15:23.920Z,100074.13
2023-05-25T19:17:51.406Z,100084.69
2023-05-25T19:20:19.274Z,100084.75
2023-05-25T19:22:47.141Z,100080.87
2023-05-25T19:25:14.841Z,100076.81
2023-05-25T19:27:42.620Z,100077.87
2023-05-25T19:30:10.401Z,100081.56
2023-05-25T19:32:37.906Z,100090.78
2023-05-25T19:35:05.858Z,100087.87
2023-05-25T19:37:33.294Z,100080.91
2023-05-25T19:40:00.838Z,100084.34
2023-05-25T19:42:31.099Z,100088.09
2023-05-25T19:44:59.799Z,100090.91
2023-05-25T19:47:27.363Z,100092.84
2023-05-25T19:49:55.178Z,100093.00
2023-05-25T19:52:22.679Z,100094.06
2023-05-25T19:54:51.288Z,100090.25
2023-05-25T19:57:20.117Z,100093.22
2023-05-25T19:59:47.628Z,100098.44
2023-05-25T20:02:15.107Z,100090.59
2023-05-25T20:04:42.898Z,100100.59
2023-05-25T20:07:10.425Z,100100.81
2023-05-25T20:09:38.913Z,100104.78
2023-05-25T20:12:07.230Z,100103.44
2023-05-25T20:14:34.748Z,100102.53
2023-05-25T20:17:02.233Z,100104.19
2023-05-25T20:19:30.063Z,100104.53
2023-05-25T20:21:59.565Z,100100.50
2023-05-25T20:24:27.038Z,100101.22
2023-05-25T20:26:56.803Z,100101.81
2023-05-25T20:29:24.484Z,100103.38
2023-05-25T20:31:52.610Z,100104.09
2023-05-25T20:34:20.736Z,100102.25
2023-05-25T20:36:48.280Z,100095.19
2023-05-25T20:39:16.112Z,100100.66
2023-05-25T20:41:44.065Z,100097.16
2023-05-25T20:44:11.542Z,100105.44
2023-05-25T20:46:38.978Z,100109.72
2023-05-25T20:49:06.797Z,100107.88
2023-05-25T20:51:34.736Z,100100.28
2023-05-25T20:54:02.431Z,100105.09
2023-05-25T20:56:30.237Z,100096.31
2023-05-25T20:58:57.732Z,100101.63
2023-05-25T21:01:25.485Z,100099.78
2023-05-25T21:03:53.529Z,100105.09
2023-05-25T21:06:21.127Z,100101.63
2023-05-25T21:08:48.560Z,100112.50
2023-05-25T21:11:16.521Z,100111.94
2023-05-25T21:13:43.963Z,100098.72
2023-05-25T21:16:11.825Z,100098.19
2023-05-25T21:18:39.608Z,100101.97
2023-05-25T21:21:07.095Z,100105.84
2023-05-25T21:23:34.783Z,100102.69
2023-05-25T21:26:02.908Z,100097.25
2023-05-25T21:28:30.539Z,100100.97
2023-05-25T21:30:57.981Z,100101.09
2023-05-25T21:33:25.946Z,100101.25
2023-05-25T21:35:53.386Z,100102.94
2023-05-25T21:38:20.797Z,100103.06
2023-05-25T21:40:48.505Z,100105.72
2023-05-25T21:43:15.946Z,100107.38
2023-05-25T21:45:43.724Z,100117.28
2023-05-25T21:48:11.700Z,100105.88
2023-05-25T21:50:39.886Z,100113.84
2023-05-25T21:53:07.322Z,100115.53
2023-05-25T21:55:35.164Z,100109.53
2023-05-25T21:58:02.562Z,100118.66
2023-05-25T22:00:30.288Z,100113.56
2023-05-25T22:02:58.220Z,100114.22
2023-05-25T22:05:25.951Z,100119.38
2023-05-25T22:07:55.029Z,100117.00
2023-05-25T22:10:23.483Z,100121.25
2023-05-25T22:12:51.220Z,100123.97
2023-05-25T22:15:18.646Z,100116.72
2023-05-25T22:17:46.492Z,100122.50
2023-05-25T22:20:14.233Z,100121.91
2023-05-25T22:22:42.348Z,100120.88
2023-05-25T22:25:10.639Z,100123.62
2023-05-25T22:27:38.601Z,100118.44
2023-05-25T22:30:07.004Z,100118.22
2023-05-25T22:32:35.190Z,100121.78
2023-05-25T22:35:02.847Z,100115.66
2023-05-25T22:37:30.342Z,100115.25
2023-05-25T22:39:58.066Z,100110.72
2023-05-25T22:42:25.680Z,100115.19
2023-05-25T22:44:53.152Z,100117.94
2023-05-25T22:47:20.936Z,100113.59
2023-05-25T22:49:48.405Z,100109.22
2023-05-25T22:52:16.120Z,100114.50
2023-05-25T22:54:43.880Z,100123.25
2023-05-25T22:57:11.345Z,100116.56
2023-05-25T22:59:38.812Z,100115.94
2023-05-25T23:02:07.441Z,100107.75
2023-05-25T23:04:38.104Z,100114.22
2023-05-25T23:07:05.768Z,100104.69
2023-05-25T23:09:33.465Z,100107.88
2023-05-25T23:12:01.740Z,100104.94
2023-05-25T23:14:30.510Z,100104.94
2023-05-25T23:16:58.036Z,100099.66
2023-05-25T23:19:25.804Z,100101.34
2023-05-25T23:21:54.367Z,100101.63
2023-05-25T23:24:21.831Z,100106.66
2023-05-25T23:26:49.570Z,100104.87
2023-05-25T23:29:17.338Z,100107.81
2023-05-25T23:31:44.824Z,100104.25
2023-05-25T23:34:12.311Z,100103.50
2023-05-25T23:36:40.689Z,100102.63
2023-05-25T23:39:08.182Z,100098.31
2023-05-25T23:41:35.641Z,100104.06
2023-05-25T23:44:03.323Z,100097.91
2023-05-25T23:46:31.848Z,100099.81
2023-05-25T23:48:59.351Z,100102.75
2023-05-25T23:51:27.330Z,100106.38
2023-05-25T23:53:54.755Z,100105.63
2023-05-25T23:56:22.261Z,100105.22
2023-05-25T23:58:50.012Z,100103.31
